Time;durP1;ratioP1;P1;durP2;ratioP2;P2;SDS_P1;SDS_P2;PMS_P1;PMS_P2;Temp;Humidity;BMP_temperature;BMP_pressure;BME280_temperature;BME280_humidity;BME280_pressure;Samples;Min_cycle;Max_cycle;Signal;HPM_P1;HPM_P2
2024/02/02 00:00:45;;;;;;;2.90;2.60;;;;;;;18.04;50.10;98045.54;105415;1254;74397;-38
2024/02/02 00:03:12;;;;;;;2.80;2.50;;;;;;;18.04;50.05;98040.42;105458;1259;63904;-39
2024/02/02 00:05:40;;;;;;;2.80;2.40;;;;;;;18.04;49.98;98046.85;105545;1254;72689;-38
2024/02/02 00:08:06;;;;;;;2.20;2.00;;;;;;;18.04;50.04;98048.95;105603;1259;61250;-38
2024/02/02 00:10:33;;;;;;;2.20;2.00;;;;;;;18.04;50.09;98046.14;105659;1254;61365;-38
2024/02/02 00:13:00;;;;;;;3.10;2.10;;;;;;;18.04;50.05;98045.23;105649;1259;74312;-38
2024/02/02 00:15:27;;;;;;;2.40;2.10;;;;;;;18.04;50.17;98047.93;105569;1259;65505;-38
2024/02/02 00:17:54;;;;;;;2.40;2.20;;;;;;;18.03;50.02;98045.90;105637;1254;72479;-38
2024/02/02 00:20:20;;;;;;;2.40;2.20;;;;;;;18.03;50.05;98053.80;105616;1259;61235;-38
2024/02/02 00:22:47;;;;;;;2.20;2.00;;;;;;;18.04;50.05;98048.32;105450;1259;61372;-38
2024/02/02 00:25:14;;;;;;;2.40;2.00;;;;;;;18.04;50.01;98052.27;105590;1254;74365;-38
2024/02/02 00:27:41;;;;;;;2.40;2.20;;;;;;;18.04;49.99;98049.63;105582;1257;65684;-38
2024/02/02 00:30:08;;;;;;;2.90;2.30;;;;;;;18.03;49.96;98047.84;105633;1257;72410;-38
2024/02/02 00:32:35;;;;;;;2.80;2.10;;;;;;;18.03;50.03;98052.79;105848;1259;61349;-38
2024/02/02 00:35:02;;;;;;;2.90;2.20;;;;;;;18.03;49.99;98053.55;105697;1254;61272;-38
2024/02/02 00:37:29;;;;;;;2.30;2.10;;;;;;;18.03;49.99;98058.81;106128;1254;74680;-38
2024/02/02 00:39:56;;;;;;;2.80;2.30;;;;;;;18.03;49.96;98055.02;105573;1259;65382;-38
2024/02/02 00:42:23;;;;;;;2.50;2.30;;;;;;;18.04;49.98;98058.46;106165;1254;72716;-38
2024/02/02 00:44:49;;;;;;;2.40;2.20;;;;;;;18.03;49.89;98058.65;105484;1259;61298;-38
2024/02/02 00:47:16;;;;;;;2.40;2.20;;;;;;;18.03;50.04;98061.52;105618;1254;61316;-38
2024/02/02 00:49:43;;;;;;;2.40;2.20;;;;;;;18.04;49.99;98058.69;105610;1257;74390;-38
2024/02/02 00:52:10;;;;;;;2.30;2.00;;;;;;;18.04;49.94;98063.73;105594;1259;65562;-38
2024/02/02 00:54:36;;;;;;;3.00;2.20;;;;;;;18.04;50.02;98063.73;105427;1259;72427;-38
2024/02/02 00:57:03;;;;;;;2.40;2.20;;;;;;;18.03;49.98;98059.45;105528;1258;61228;-39
2024/02/02 00:59:31;;;;;;;2.30;2.10;;;;;;;18.03;49.91;98058.81;105593;1254;61329;-39
2024/02/02 01:01:57;;;;;;;2.20;2.00;;;;;;;18.03;49.99;98060.75;105575;1259;74389;-39
2024/02/02 01:04:24;;;;;;;2.30;2.10;;;;;;;18.03;49.96;98059.45;105607;1259;66131;-39
2024/02/02 01:06:51;;;;;;;2.40;2.20;;;;;;;18.03;49.98;98060.23;105646;1254;72597;-39
2024/02/02 01:09:18;;;;;;;2.40;1.90;;;;;;;18.03;49.95;98067.42;105625;1259;61231;-39
2024/02/02 01:11:45;;;;;;;2.60;2.10;;;;;;;18.03;49.94;98064.16;105497;1254;61269;-39
2024/02/02 01:14:17;;;;;;;2.30;1.80;;;;;;;18.03;49.92;98059.73;105648;1255;74365;-39
2024/02/02 01:16:44;;;;;;;3.00;2.30;;;;;;;18.03;49.95;98064.55;105514;1259;65505;-37
2024/02/02 01:19:10;;;;;;;2.40;2.20;;;;;;;18.02;49.94;98065.98;105495;1254;71979;-38
2024/02/02 01:21:37;;;;;;;2.50;2.10;;;;;;;18.03;49.97;98068.73;105580;1259;61234;-39
2024/02/02 01:24:05;;;;;;;2.40;2.20;;;;;;;18.03;49.91;98069.02;105538;1254;61269;-37
2024/02/02 01:26:32;;;;;;;2.50;2.10;;;;;;;18.03;49.91;98070.27;105727;1256;74756;-39
2024/02/02 01:28:59;;;;;;;2.40;2.10;;;;;;;18.03;49.95;98070.96;105636;1258;65740;-38
2024/02/02 01:31:26;;;;;;;2.40;2.20;;;;;;;18.03;49.91;98071.27;105500;1254;72548;-38
2024/02/02 01:33:53;;;;;;;3.00;2.20;;;;;;;18.02;49.88;98075.73;105551;1259;61352;-38
2024/02/02 01:36:20;;;;;;;2.30;2.10;;;;;;;18.03;49.87;98078.61;105536;1254;61347;-38
2024/02/02 01:38:50;;;;;;;4.00;2.00;;;;;;;18.03;49.95;98077.69;105536;1255;74542;-39
2024/02/02 01:41:17;;;;;;;2.20;2.00;;;;;;;18.03;49.91;98081.31;105488;1258;66031;-39
2024/02/02 01:43:44;;;;;;;2.10;1.90;;;;;;;18.02;49.90;98085.71;105578;1254;71366;-39
2024/02/02 01:46:14;;;;;;;5.40;2.10;;;;;;;18.02;49.84;98084.55;105520;1260;61254;-38
2024/02/02 01:48:41;;;;;;;2.90;2.30;;;;;;;18.02;49.91;98088.19;105660;1257;61237;-38
2024/02/02 01:51:08;;;;;;;2.30;2.10;;;;;;;18.02;49.86;98090.51;105587;1255;74555;-38
2024/02/02 01:53:35;;;;;;;3.10;2.10;;;;;;;18.01;49.86;98093.45;105499;1259;65561;-39
2024/02/02 01:56:02;;;;;;;3.50;2.00;;;;;;;18.01;49.89;98093.68;105600;1254;72019;-39
2024/02/02 01:58:29;;;;;;;2.00;1.80;;;;;;;18.01;49.96;98092.50;105431;1259;61216;-39
2024/02/02 02:00:55;;;;;;;2.50;2.20;;;;;;;18.01;49.80;98091.35;105479;1254;61346;-39
2024/02/02 02:03:22;;;;;;;2.30;1.90;;;;;;;18.01;49.91;98096.30;105666;1259;74614;-39
2024/02/02 02:05:49;;;;;;;2.30;2.10;;;;;;;18.01;49.85;98095.77;105550;1259;64741;-38
2024/02/02 02:08:16;;;;;;;2.70;2.10;;;;;;;18.01;49.88;98097.99;105592;1254;72600;-38
2024/02/02 02:10:45;;;;;;;2.10;1.90;;;;;;;18.00;49.86;98096.80;105573;1258;61263;-38
2024/02/02 02:13:12;;;;;;;3.10;2.30;;;;;;;18.00;49.84;98101.52;105619;1259;61237;-39
2024/02/02 02:15:39;;;;;;;2.90;2.20;;;;;;;18.00;49.74;98099.83;105398;1254;74664;-39
2024/02/02 02:18:05;;;;;;;2.10;1.90;;;;;;;17.99;49.83;98103.21;105354;1261;63918;-39
2024/02/02 02:20:32;;;;;;;2.10;1.90;;;;;;;17.99;49.89;98104.20;105616;1255;72374;-37
2024/02/02 02:23:00;;;;;;;2.40;2.20;;;;;;;17.98;49.84;98104.08;105431;1259;61260;-38
2024/02/02 02:25:28;;;;;;;2.10;1.90;;;;;;;17.98;49.86;98107.71;105648;1254;61631;-38
2024/02/02 02:27:54;;;;;;;2.30;1.90;;;;;;;17.97;49.82;98104.99;105714;1257;74564;-38
2024/02/02 02:30:21;;;;;;;2.70;2.30;;;;;;;17.97;49.89;98108.63;105479;1259;65650;-38
2024/02/02 02:32:48;;;;;;;2.10;1.90;;;;;;;17.96;49.89;98106.73;105590;1257;72721;-36
2024/02/02 02:35:15;;;;;;;2.10;1.90;;;;;;;17.97;49.86;98108.30;105567;1258;61252;-38
2024/02/02 02:37:41;;;;;;;2.30;1.90;;;;;;;17.96;49.85;98105.19;105667;1254;61340;-39
2024/02/02 02:40:09;;;;;;;2.40;1.90;;;;;;;17.96;49.86;98107.98;105647;1254;73978;-39
2024/02/02 02:42:36;;;;;;;2.70;2.10;;;;;;;17.96;49.88;98109.27;106037;1254;66462;-39
2024/02/02 02:45:03;;;;;;;2.30;2.10;;;;;;;17.95;49.89;98109.80;105592;1254;72715;-39
2024/02/02 02:47:32;;;;;;;2.60;2.40;;;;;;;17.96;49.84;98114.08;105913;1259;61286;-37
2024/02/02 02:49:59;;;;;;;2.40;1.90;;;;;;;17.95;49.91;98120.33;105613;1257;61231;-37
2024/02/02 02:52:26;;;;;;;2.00;1.80;;;;;;;17.96;49.86;98119.34;106200;1255;74970;-38
2024/02/02 02:54:53;;;;;;;2.20;2.00;;;;;;;17.96;49.87;98124.76;105691;1258;66216;-38
2024/02/02 02:57:19;;;;;;;3.10;2.00;;;;;;;17.95;49.91;98126.77;105607;1257;72570;-38
2024/02/02 02:59:46;;;;;;;2.10;1.90;;;;;;;17.96;49.84;98122.05;105604;1257;61345;-38
2024/02/02 03:02:13;;;;;;;2.40;2.20;;;;;;;17.96;49.92;98124.59;105602;1254;61292;-38
2024/02/02 03:04:39;;;;;;;2.30;2.10;;;;;;;17.95;49.91;98129.55;105637;1258;74381;-38
2024/02/02 03:07:06;;;;;;;2.50;2.00;;;;;;;17.95;49.84;98131.10;105491;1259;65716;-38
2024/02/02 03:09:33;;;;;;;2.00;1.80;;;;;;;17.95;49.85;98131.94;105479;1254;73192;-38
2024/02/02 03:12:00;;;;;;;2.20;1.90;;;;;;;17.95;49.84;98129.70;105439;1259;61295;-38
2024/02/02 03:14:27;;;;;;;2.70;2.10;;;;;;;17.96;49.88;98140.63;105405;1256;61353;-38
2024/02/02 03:16:54;;;;;;;2.60;2.20;;;;;;;17.95;49.78;98134.64;105512;1255;74377;-38
2024/02/02 03:19:20;;;;;;;2.50;1.90;;;;;;;17.95;49.92;98138.38;105563;1259;65667;-38
2024/02/02 03:21:47;;;;;;;3.10;2.00;;;;;;;17.95;49.85;98138.42;105638;1254;72366;-38
2024/02/02 03:24:14;;;;;;;2.20;1.90;;;;;;;17.95;49.90;98140.13;105630;1259;61254;-38
2024/02/02 03:26:41;;;;;;;2.40;2.00;;;;;;;17.95;49.90;98144.70;105584;1259;61398;-39
2024/02/02 03:29:08;;;;;;;2.60;2.00;;;;;;;17.95;49.82;98140.28;105657;1259;74519;-38
2024/02/02 03:31:35;;;;;;;2.50;2.10;;;;;;;17.95;49.88;98146.63;105472;1258;65739;-38
2024/02/02 03:34:01;;;;;;;2.90;2.00;;;;;;;17.95;49.86;98149.97;105479;1254;72580;-38
2024/02/02 03:36:29;;;;;;;2.50;2.10;;;;;;;17.95;49.85;98155.17;105473;1259;61292;-38
2024/02/02 03:38:55;;;;;;;2.00;1.80;;;;;;;17.95;49.80;98148.04;105478;1254;61240;-38
2024/02/02 03:41:22;;;;;;;2.30;1.80;;;;;;;17.95;49.87;98151.61;105542;1259;74303;-38
2024/02/02 03:43:50;;;;;;;1.80;1.70;;;;;;;17.95;49.83;98152.75;105580;1258;65094;-38
2024/02/02 03:46:19;;;;;;;2.50;1.80;;;;;;;17.95;49.80;98156.23;105530;1257;72390;-38
2024/02/02 03:48:46;;;;;;;2.00;1.80;;;;;;;17.95;49.86;98160.55;105512;1259;61230;-38
2024/02/02 03:51:13;;;;;;;2.80;2.10;;;;;;;17.95;49.83;98161.65;105332;1257;61301;-37
2024/02/02 03:53:39;;;;;;;1.90;1.70;;;;;;;17.95;49.86;98162.83;105499;1255;74481;-38
2024/02/02 03:56:06;;;;;;;2.20;2.00;;;;;;;17.95;49.82;98163.83;105576;1258;65920;-38
2024/02/02 03:58:33;;;;;;;2.40;1.90;;;;;;;17.96;49.86;98167.41;105641;1257;72768;-38
2024/02/02 04:01:00;;;;;;;2.20;1.90;;;;;;;17.95;49.73;98166.30;105485;1259;61276;-40
2024/02/02 04:03:26;;;;;;;2.30;1.90;;;;;;;17.95;49.81;98165.69;105511;1254;61218;-38
2024/02/02 04:05:53;;;;;;;2.40;2.00;;;;;;;17.95;49.75;98165.31;105642;1259;74591;-38
2024/02/02 04:08:20;;;;;;;2.30;1.90;;;;;;;17.95;49.75;98167.23;105536;1255;65467;-38
2024/02/02 04:10:47;;;;;;;2.40;1.90;;;;;;;17.94;49.78;98172.40;105542;1254;72515;-38
2024/02/02 04:13:14;;;;;;;2.40;1.70;;;;;;;17.95;49.78;98173.20;105704;1259;61266;-38
2024/02/02 04:15:40;;;;;;;2.10;1.90;;;;;;;17.94;49.83;98177.05;105581;1254;61250;-37
2024/02/02 04:18:07;;;;;;;1.70;1.60;;;;;;;17.94;49.78;98177.36;105544;1255;75819;-38
2024/02/02 04:20:34;;;;;;;1.80;1.60;;;;;;;17.94;49.79;98181.30;105498;1259;66193;-39
2024/02/02 04:23:01;;;;;;;2.10;1.70;;;;;;;17.94;49.80;98186.02;105584;1257;72611;-39
2024/02/02 04:25:27;;;;;;;2.50;1.50;;;;;;;17.93;49.74;98189.56;105470;1259;61546;-38
2024/02/02 04:27:54;;;;;;;4.00;1.90;;;;;;;17.94;49.82;98185.23;105590;1254;61369;-39
2024/02/02 04:30:21;;;;;;;1.80;1.60;;;;;;;17.94;49.78;98191.66;105414;1254;74616;-39
2024/02/02 04:32:48;;;;;;;2.40;1.90;;;;;;;17.93;49.73;98188.00;105656;1258;65579;-39
2024/02/02 04:35:15;;;;;;;2.30;1.80;;;;;;;17.94;49.76;98190.65;105634;1255;72565;-39
2024/02/02 04:37:42;;;;;;;2.20;1.60;;;;;;;17.93;49.73;98189.54;105493;1259;61234;-40
2024/02/02 04:40:09;;;;;;;2.30;1.90;;;;;;;17.93;49.75;98189.30;105601;1257;61343;-39
2024/02/02 04:42:36;;;;;;;2.00;1.80;;;;;;;17.93;49.70;98192.08;105576;1257;74967;-38
2024/02/02 04:45:04;;;;;;;2.00;1.70;;;;;;;17.93;49.79;98189.77;105656;1257;66179;-40
2024/02/02 04:47:33;;;;;;;2.10;1.90;;;;;;;17.92;49.74;98191.08;105916;1259;72583;-38
2024/02/02 04:49:59;;;;;;;1.90;1.70;;;;;;;17.93;49.82;98193.40;105566;1258;61905;-38
2024/02/02 04:52:26;;;;;;;2.70;2.10;;;;;;;17.93;49.82;98196.27;105476;1256;61231;-37
2024/02/02 04:54:55;;;;;;;2.30;1.80;;;;;;;17.92;49.74;98203.01;105610;1255;74474;-38
2024/02/02 04:57:22;;;;;;;2.10;1.70;;;;;;;17.92;49.74;98202.74;105602;1259;65763;-38
2024/02/02 04:59:49;;;;;;;1.80;1.70;;;;;;;17.92;49.77;98208.11;105613;1257;72452;-38
2024/02/02 05:02:15;;;;;;;2.30;1.70;;;;;;;17.93;49.74;98210.45;105613;1259;61253;-38
2024/02/02 05:04:42;;;;;;;1.90;1.70;;;;;;;17.92;49.79;98209.88;105454;1257;61201;-39
2024/02/02 05:07:09;;;;;;;1.80;1.60;;;;;;;17.92;49.78;98211.29;105381;1257;74729;-38
2024/02/02 05:09:36;;;;;;;2.40;1.70;;;;;;;17.92;49.69;98209.56;105558;1259;66414;-38
2024/02/02 05:12:05;;;;;;;1.80;1.50;;;;;;;17.92;49.79;98212.38;105645;1257;73027;-38
2024/02/02 05:14:31;;;;;;;1.70;1.50;;;;;;;17.92;49.75;98215.05;105631;1257;61163;-38
2024/02/02 05:16:59;;;;;;;1.70;1.60;;;;;;;17.91;49.78;98217.98;105465;1257;61316;-38
2024/02/02 05:19:25;;;;;;;2.10;1.60;;;;;;;17.92;49.77;98220.48;105691;1254;74638;-38
2024/02/02 05:21:53;;;;;;;2.40;2.00;;;;;;;17.92;49.71;98221.55;105502;1257;65884;-39
2024/02/02 05:24:19;;;;;;;2.20;1.50;;;;;;;17.92;49.72;98223.56;105595;1257;72573;-38
2024/02/02 05:27:06;;;;;;;2.00;1.70;;;;;;;17.91;49.71;98222.93;105457;1258;61237;-39
2024/02/02 05:29:33;;;;;;;1.80;1.60;;;;;;;17.91;49.71;98229.57;105491;1258;61238;-39
2024/02/02 05:31:59;;;;;;;2.80;1.90;;;;;;;17.91;49.72;98228.95;105543;1257;74498;-38
2024/02/02 05:34:26;;;;;;;1.90;1.80;;;;;;;17.91;49.68;98237.47;105534;1259;66278;-38
2024/02/02 05:36:53;;;;;;;2.30;1.70;;;;;;;17.91;49.74;98241.64;105574;1257;73153;-38
2024/02/02 05:39:19;;;;;;;1.70;1.50;;;;;;;17.91;49.77;98244.51;105654;1259;61340;-38
2024/02/02 05:41:46;;;;;;;1.40;1.30;;;;;;;17.91;49.77;98252.52;105592;1257;61362;-38
2024/02/02 05:44:13;;;;;;;2.10;1.80;;;;;;;17.91;49.72;98254.52;105521;1255;74572;-38
2024/02/02 05:46:39;;;;;;;1.90;1.70;;;;;;;17.91;49.74;98254.81;105504;1259;64980;-39
2024/02/02 05:49:06;;;;;;;2.10;1.70;;;;;;;17.92;49.78;98260.27;105483;1257;73890;-39
2024/02/02 05:51:33;;;;;;;2.60;1.70;;;;;;;17.91;49.80;98261.80;105450;1254;61882;-38
2024/02/02 05:54:00;;;;;;;2.00;1.80;;;;;;;17.91;49.81;98264.73;105384;1257;61263;-39
2024/02/02 05:56:27;;;;;;;2.50;1.70;;;;;;;17.91;49.75;98264.44;105473;1259;74617;-38
2024/02/02 05:58:53;;;;;;;3.00;1.70;;;;;;;17.92;49.76;98271.20;105529;1259;65835;-37
2024/02/02 06:01:20;;;;;;;2.60;1.90;;;;;;;17.92;49.97;98275.08;105405;1258;72636;-41
2024/02/02 06:03:47;;;;;;;2.50;1.60;;;;;;;17.93;49.95;98279.98;105580;1259;61233;-40
2024/02/02 06:06:14;;;;;;;1.90;1.70;;;;;;;17.94;50.09;98280.16;105607;1257;61327;-40
2024/02/02 06:08:40;;;;;;;2.00;1.70;;;;;;;17.95;50.17;98283.98;105486;1255;74488;-40
2024/02/02 06:11:08;;;;;;;2.30;2.00;;;;;;;17.96;50.15;98290.52;105522;1259;66269;-41
2024/02/02 06:13:35;;;;;;;2.90;2.10;;;;;;;17.96;50.18;98292.34;105599;1257;73287;-41
2024/02/02 06:16:02;;;;;;;2.20;1.90;;;;;;;17.97;50.21;98296.47;105396;1257;61356;-44
2024/02/02 06:18:29;;;;;;;4.10;2.20;;;;;;;17.98;50.11;98300.81;105518;1257;61252;-40
2024/02/02 06:20:56;;;;;;;1.90;1.70;;;;;;;17.99;50.11;98300.46;105554;1255;74606;-41
2024/02/02 06:23:22;;;;;;;2.60;1.90;;;;;;;17.99;50.09;98303.52;105562;1255;66166;-42
2024/02/02 06:25:49;;;;;;;2.70;1.80;;;;;;;18.01;50.06;98304.34;105427;1257;71733;-41
2024/02/02 06:28:16;;;;;;;2.40;2.00;;;;;;;18.01;50.05;98310.71;105541;1259;61301;-41
2024/02/02 06:30:48;;;;;;;2.00;1.80;;;;;;;18.02;49.98;98316.02;105522;1254;61666;-41
2024/02/02 06:33:16;;;;;;;2.80;1.80;;;;;;;18.03;49.99;98319.09;105597;1259;74342;-42
2024/02/02 06:35:46;;;;;;;2.30;1.90;;;;;;;18.04;49.93;98316.16;105493;1261;64786;-40
2024/02/02 06:38:13;;;;;;;3.10;2.20;;;;;;;18.05;49.96;98320.77;105515;1257;72497;-42
2024/02/02 06:40:39;;;;;;;5.60;2.20;;;;;;;18.05;49.84;98321.23;105344;1257;61393;-42
2024/02/02 06:43:06;;;;;;;4.00;2.30;;;;;;;18.06;49.90;98326.77;105288;1257;61439;-42
2024/02/02 06:45:33;;;;;;;3.70;2.10;;;;;;;18.07;49.92;98324.09;105458;1259;74333;-40
2024/02/02 06:48:00;;;;;;;2.90;1.90;;;;;;;18.08;50.03;98323.73;105227;1261;66552;-40
2024/02/02 06:50:28;;;;;;;2.30;1.90;;;;;;;18.09;50.05;98329.13;108026;1257;73164;-42
2024/02/02 06:52:55;;;;;;;2.70;1.90;;;;;;;18.10;50.07;98333.98;105338;1259;61179;-46
2024/02/02 06:55:23;;;;;;;3.40;2.10;;;;;;;18.11;50.07;98331.61;105345;1257;61253;-44
2024/02/02 06:57:50;;;;;;;2.90;1.90;;;;;;;18.13;50.11;98331.89;105347;1257;75445;-42
2024/02/02 07:00:17;;;;;;;3.00;2.20;;;;;;;18.14;50.10;98334.37;105251;1262;67095;-40
2024/02/02 07:02:44;;;;;;;2.40;1.90;;;;;;;18.16;50.12;98335.36;105347;1256;73952;-40
2024/02/02 07:05:14;;;;;;;3.70;2.10;;;;;;;18.16;50.10;98336.85;105499;1262;61241;-41
2024/02/02 07:07:41;;;;;;;2.80;2.00;;;;;;;18.17;50.08;98332.69;105616;1254;61247;-42
2024/02/02 07:10:15;;;;;;;2.30;2.10;;;;;;;18.18;50.10;98331.73;105517;1255;74593;-41
2024/02/02 07:13:01;;;;;;;2.80;2.10;;;;;;;18.20;50.11;98334.27;105677;1259;64947;-40
2024/02/02 07:15:30;;;;;;;3.00;2.00;;;;;;;18.20;50.08;98332.83;105254;1262;72761;-40
2024/02/02 07:17:58;;;;;;;4.20;2.00;;;;;;;18.22;50.05;98340.52;105456;1257;61266;-42
2024/02/02 07:20:25;;;;;;;4.40;2.10;;;;;;;18.23;50.09;98341.73;105349;1254;61339;-43
2024/02/02 07:23:01;;;;;;;2.70;2.20;;;;;;;18.23;50.03;98344.98;105575;1255;74388;-41
2024/02/02 07:25:42;;;;;;;2.20;1.90;;;;;;;18.24;50.06;98344.11;105419;1259;67502;-41
2024/02/02 07:28:33;;;;;;;3.00;2.10;;;;;;;18.25;50.01;98343.83;105498;1259;72482;-40
2024/02/02 07:31:01;;;;;;;3.50;2.00;;;;;;;18.27;50.02;98344.52;105353;1259;61308;-40
2024/02/02 07:33:41;;;;;;;3.40;2.10;;;;;;;18.27;50.02;98347.16;105576;1255;61267;-41
2024/02/02 07:36:29;;;;;;;3.10;1.80;;;;;;;18.27;49.92;98349.95;105309;1256;73634;-39
2024/02/02 07:38:56;;;;;;;3.90;1.90;;;;;;;18.28;49.96;98351.98;105461;1259;66086;-40
2024/02/02 07:41:27;;;;;;;2.70;2.10;;;;;;;18.28;49.95;98352.40;105608;1260;73639;-39
2024/02/02 07:44:01;;;;;;;2.20;1.90;;;;;;;18.29;49.94;98352.98;105543;1259;61240;-39
2024/02/02 07:46:28;;;;;;;2.40;1.80;;;;;;;18.30;49.92;98352.23;105563;1254;61180;-36
2024/02/02 07:48:55;;;;;;;3.10;2.00;;;;;;;18.31;49.85;98357.83;105424;1257;74456;-40
2024/02/02 07:51:24;;;;;;;2.60;2.00;;;;;;;18.31;49.87;98357.39;105363;1259;66757;-38
2024/02/02 07:53:51;;;;;;;3.90;1.70;;;;;;;18.32;49.77;98355.23;105565;1254;72449;-39
2024/02/02 07:56:18;;;;;;;3.00;2.20;;;;;;;18.32;49.78;98358.73;105513;1259;61247;-37
2024/02/02 07:58:45;;;;;;;2.90;1.90;;;;;;;18.31;49.76;98361.73;105434;1258;61271;-39
2024/02/02 08:01:12;;;;;;;2.80;1.80;;;;;;;18.31;49.63;98360.19;105473;1255;75806;-39
2024/02/02 08:03:38;;;;;;;2.50;2.00;;;;;;;18.31;49.60;98358.38;105450;1259;66230;-38
2024/02/02 08:06:07;;;;;;;3.40;1.80;;;;;;;18.30;49.49;98358.36;105539;1257;74768;-39
2024/02/02 08:08:35;;;;;;;2.00;1.80;;;;;;;18.29;49.46;98359.33;105528;1259;61167;-40
2024/02/02 08:11:03;;;;;;;4.80;2.20;;;;;;;18.29;49.41;98360.41;105557;1257;63076;-41
2024/02/02 08:13:30;;;;;;;2.80;1.90;;;;;;;18.30;49.37;98361.84;105411;1256;74815;-41
2024/02/02 08:15:58;;;;;;;3.80;1.80;;;;;;;18.32;49.44;98365.92;105460;1257;66398;-43
2024/02/02 08:18:26;;;;;;;3.60;2.10;;;;;;;18.37;49.80;98369.69;105335;1257;73329;-49
2024/02/02 08:20:54;;;;;;;7.50;2.50;;;;;;;18.45;50.49;98370.55;105551;1260;61238;-40
2024/02/02 08:23:21;;;;;;;4.00;2.30;;;;;;;18.54;50.57;98367.09;105365;1258;61260;-43
2024/02/02 08:25:48;;;;;;;4.80;2.30;;;;;;;18.62;50.75;98362.71;105127;1262;74629;-43
2024/02/02 08:28:15;;;;;;;3.50;2.20;;;;;;;18.69;50.81;98359.73;105232;1254;66977;-45
2024/02/02 08:30:42;;;;;;;7.50;2.40;;;;;;;18.77;50.96;98364.26;105356;1257;73421;-46
2024/02/02 08:33:09;;;;;;;5.40;2.00;;;;;;;18.83;51.04;98364.38;105382;1259;61228;-43
2024/02/02 08:35:37;;;;;;;5.00;2.10;;;;;;;18.88;50.88;98366.12;105438;1257;61297;-45
2024/02/02 08:38:08;;;;;;;5.40;2.20;;;;;;;18.92;50.84;98370.46;105122;1257;74749;-44
2024/02/02 08:40:42;;;;;;;4.10;2.10;;;;;;;18.96;50.84;98368.36;105231;1262;67029;-42
2024/02/02 08:43:21;;;;;;;7.40;2.30;;;;;;;18.99;51.01;98376.38;105263;1257;73285;-41
2024/02/02 08:46:12;;;;;;;4.20;2.10;;;;;;;19.02;50.94;98375.79;105336;1257;61250;-42
2024/02/02 08:48:46;;;;;;;4.70;1.90;;;;;;;19.04;50.69;98375.76;106593;1258;61239;-42
2024/02/02 08:51:23;;;;;;;4.10;2.20;;;;;;;19.05;50.67;98375.80;105387;1259;76712;-42
2024/02/02 08:54:13;;;;;;;3.20;2.00;;;;;;;19.07;50.66;98371.61;105544;1260;66874;-42
2024/02/02 08:56:41;;;;;;;4.80;1.80;;;;;;;19.08;50.48;98375.83;105441;1257;73318;-43
2024/02/02 08:59:31;;;;;;;3.60;2.00;;;;;;;19.09;50.57;98382.54;105460;1260;61192;-41
2024/02/02 09:01:58;;;;;;;3.60;1.90;;;;;;;19.10;50.47;98382.11;105460;1261;61346;-40
2024/02/02 09:04:49;;;;;;;3.50;1.80;;;;;;;19.10;50.40;98386.16;105426;1263;75497;-41
2024/02/02 09:07:16;;;;;;;3.50;1.70;;;;;;;19.12;50.35;98383.55;105459;1258;66359;-42
2024/02/02 09:09:43;;;;;;;5.10;1.90;;;;;;;19.12;50.25;98382.31;105542;1257;73463;-40
2024/02/02 09:12:10;;;;;;;2.40;1.70;;;;;;;19.12;50.24;98384.49;105499;1259;61231;-42
2024/02/02 09:14:37;;;;;;;3.10;2.10;;;;;;;19.13;50.19;98386.06;105442;1257;61424;-41
2024/02/02 09:17:05;;;;;;;4.00;1.80;;;;;;;19.13;50.18;98385.08;105307;1260;75474;-44
2024/02/02 09:19:42;;;;;;;5.30;1.80;;;;;;;19.13;50.16;98387.18;105502;1263;66951;-40
2024/02/02 09:22:11;;;;;;;2.60;1.80;;;;;;;19.14;50.22;98385.26;105458;1259;73233;-40
2024/02/02 09:24:46;;;;;;;4.40;1.90;;;;;;;19.15;50.19;98380.16;105441;1257;61768;-41
2024/02/02 09:27:32;;;;;;;2.80;1.80;;;;;;;19.14;50.15;98381.61;105361;1259;61349;-43
2024/02/02 09:30:00;;;;;;;4.00;2.00;;;;;;;19.15;50.21;98386.59;105111;1262;73515;-39
2024/02/02 09:32:27;;;;;;;2.30;1.60;;;;;;;19.15;50.14;98385.05;106007;1259;67135;-41
2024/02/02 09:34:55;;;;;;;7.00;1.70;;;;;;;19.14;50.13;98377.89;105278;1260;72492;-41
2024/02/02 09:37:25;;;;;;;3.20;1.70;;;;;;;19.14;50.23;98382.93;105422;1263;61236;-42
2024/02/02 09:39:55;;;;;;;3.40;1.70;;;;;;;19.16;50.42;98381.04;105382;1256;61225;-50
2024/02/02 09:42:40;;;;;;;2.60;1.70;;;;;;;19.16;50.52;98384.06;105351;1257;75015;-46
2024/02/02 09:45:20;;;;;;;3.50;1.70;;;;;;;19.16;50.39;98381.12;108507;1259;67243;-46
2024/02/02 09:47:47;;;;;;;1.60;1.40;;;;;;;19.17;50.19;98385.97;106610;1259;73195;-42
2024/02/02 09:50:42;;;;;;;4.00;1.50;;;;;;;19.17;50.16;98386.29;105326;1260;61232;-41
2024/02/02 09:53:39;;;;;;;3.70;1.80;;;;;;;19.17;50.23;98382.71;105365;1259;61350;-45
2024/02/02 09:56:44;;;;;;;6.60;1.80;;;;;;;19.17;50.26;98378.76;105484;1258;75373;-46
2024/02/02 09:59:14;;;;;;;2.20;1.50;;;;;;;19.18;50.50;98380.56;104963;1258;67128;-42
2024/02/02 10:02:03;;;;;;;4.10;1.70;;;;;;;19.19;50.60;98380.90;105220;1260;72658;-42
2024/02/02 10:04:47;;;;;;;2.80;1.60;;;;;;;19.20;50.81;98382.80;105458;1259;61254;-42
2024/02/02 10:07:36;;;;;;;3.10;1.60;;;;;;;19.20;51.00;98384.58;105460;1256;61333;-40
2024/02/02 10:10:15;;;;;;;3.80;1.60;;;;;;;19.21;51.08;98383.93;105450;1259;74401;-46
2024/02/02 10:13:09;;;;;;;2.40;1.60;;;;;;;19.22;51.21;98387.16;106175;1259;67476;-42
2024/02/02 10:15:54;;;;;;;2.70;1.40;;;;;;;19.23;51.36;98388.67;105465;1257;73072;-47
2024/02/02 10:18:45;;;;;;;3.10;1.70;;;;;;;19.25;51.39;98388.11;105452;1260;61286;-47
2024/02/02 10:21:56;;;;;;;2.30;1.40;;;;;;;19.27;51.47;98391.98;105496;1259;62283;-43
2024/02/02 10:24:54;;;;;;;7.10;1.70;;;;;;;19.28;51.48;98387.83;105493;1256;75714;-43
2024/02/02 10:27:28;;;;;;;2.70;1.60;;;;;;;19.28;51.29;98387.66;105485;1257;67008;-43
2024/02/02 10:30:05;;;;;;;3.20;1.70;;;;;;;19.27;51.11;98387.70;105531;1259;73679;-43
2024/02/02 10:32:53;;;;;;;5.50;1.70;;;;;;;19.25;50.93;98380.12;106004;1259;63087;-44
2024/02/02 10:35:44;;;;;;;3.30;1.80;;;;;;;19.24;50.82;98382.88;105158;1263;61288;-44
2024/02/02 10:38:26;;;;;;;3.10;1.70;;;;;;;19.23;50.74;98377.40;105575;1254;75284;-44
2024/02/02 10:41:01;;;;;;;7.00;1.50;;;;;;;19.22;50.95;98375.27;105373;1260;67272;-42
2024/02/02 10:43:38;;;;;;;3.60;1.90;;;;;;;19.21;50.91;98375.63;105479;1260;73459;-42
2024/02/02 10:46:41;;;;;;;5.60;2.00;;;;;;;19.21;50.76;98376.95;105439;1260;163299;-43
2024/02/02 10:49:32;;;;;;;4.10;1.70;;;;;;;19.21;50.72;98381.45;105391;1259;61295;-45
2024/02/02 10:52:27;;;;;;;3.60;1.80;;;;;;;19.21;50.55;98375.70;105463;1258;75562;-44
2024/02/02 10:55:31;;;;;;;3.90;1.80;;;;;;;19.19;50.40;98375.49;105496;1259;67063;-44
2024/02/02 10:58:04;;;;;;;3.00;1.60;;;;;;;19.19;50.47;98380.98;105500;1257;73448;-42
2024/02/02 11:00:33;;;;;;;3.60;1.60;;;;;;;19.19;50.45;98374.32;105413;1260;61283;-42
2024/02/02 11:03:08;;;;;;;3.80;2.10;;;;;;;19.18;50.49;98367.33;105362;1257;61375;-45
2024/02/02 11:05:35;;;;;;;5.10;2.10;;;;;;;19.18;50.47;98364.45;105479;1260;74678;-45
2024/02/02 11:08:03;;;;;;;6.00;2.00;;;;;;;19.17;50.35;98365.71;105396;1260;67197;-47
2024/02/02 11:10:38;;;;;;;6.40;1.90;;;;;;;19.16;50.18;98369.41;105626;1264;73352;-45
2024/02/02 11:13:12;;;;;;;3.80;2.10;;;;;;;19.15;50.12;98369.06;105523;1260;61250;-46
2024/02/02 11:16:06;;;;;;;5.70;2.00;;;;;;;19.12;49.92;98367.19;105538;1259;61316;-45
2024/02/02 11:18:38;;;;;;;6.50;2.10;;;;;;;19.10;49.83;98373.26;105441;1258;75250;-40
2024/02/02 11:21:13;;;;;;;6.50;1.90;;;;;;;19.08;49.83;98374.66;105238;1257;65661;-41
2024/02/02 11:24:02;;;;;;;4.40;2.10;;;;;;;19.08;49.81;98369.33;105634;1254;73366;-43
2024/02/02 11:26:44;;;;;;;4.20;2.20;;;;;;;19.12;50.18;98368.89;105504;1257;61285;-43
2024/02/02 11:29:29;;;;;;;4.50;2.00;;;;;;;19.16;50.29;98358.70;105682;1259;61282;-43
2024/02/02 11:32:11;;;;;;;8.20;2.20;;;;;;;19.19;50.35;98355.94;105557;1260;75158;-43
2024/02/02 11:34:54;;;;;;;3.60;2.00;;;;;;;19.21;50.34;98363.61;105609;1260;67352;-43
2024/02/02 11:37:45;;;;;;;4.70;2.20;;;;;;;19.23;50.26;98366.54;105623;1260;72790;-43
2024/02/02 11:40:12;;;;;;;4.10;2.00;;;;;;;19.24;50.09;98363.48;105471;1260;61343;-43